Time;durP1;ratioP1;P1;durP2;ratioP2;P2;SDS_P1;SDS_P2;PMS_P1;PMS_P2;Temp;Humidity;BMP_temperature;BMP_pressure;BME280_temperature;BME280_humidity;BME280_pressure;Samples;Min_cycle;Max_cycle;Signal;HPM_P1;HPM_P2
2023/03/15 00:01:48;;;;;;;43.07;9.03;;;4.00;99.20;;;;;;5066899;28;21020;-59
2023/03/15 00:04:15;;;;;;;71.03;12.40;;;;;;;;;;5056198;28;20508;-59
2023/03/15 00:06:42;;;;;;;46.97;9.83;;;;;;;;;;5063670;28;20481;-59
2023/03/15 00:09:09;;;;;;;79.70;14.20;;;3.90;99.40;;;;;;5056198;28;21009;-59
2023/03/15 00:11:36;;;;;;;51.07;11.37;;;;;;;;;;5053908;28;21179;-59
2023/03/15 00:14:04;;;;;;;69.53;13.90;;;3.90;99.50;;;;;;5062039;28;20507;-59
2023/03/15 00:16:32;;;;;;;34.93;9.30;;;;;;;;;;5064216;28;20482;-59
2023/03/15 00:18:58;;;;;;;43.70;10.33;;;3.80;99.40;;;;;;5028176;28;21046;-59
2023/03/15 00:21:27;;;;;;;60.43;11.80;;;;;;;;;;5052234;28;21009;-59
2023/03/15 00:23:54;;;;;;;43.57;7.93;;;3.80;99.30;;;;;;5064872;28;20853;-59
2023/03/15 00:26:21;;;;;;;42.30;9.83;;;3.80;99.30;;;;;;5059889;28;20997;-59
2023/03/15 00:28:47;;;;;;;37.73;8.00;;;3.80;99.30;;;;;;5065952;28;20532;-59
2023/03/15 00:31:18;;;;;;;73.00;12.57;;;3.80;99.30;;;;;;5070429;28;20539;-59
2023/03/15 00:33:45;;;;;;;27.33;7.87;;;;;;;;;;5062572;28;20493;-59
2023/03/15 00:36:12;;;;;;;53.97;11.37;;;3.70;99.30;;;;;;5070982;28;20505;-59
2023/03/15 00:38:40;;;;;;;23.10;6.90;;;6.40;99.90;;;;;;5072945;28;20916;-59
2023/03/15 00:41:08;;;;;;;49.77;12.10;;;3.60;99.40;;;;;;5072977;28;20490;-59
2023/03/15 00:43:35;;;;;;;21.30;7.53;;;;;;;;;;5061029;28;20524;-59
2023/03/15 00:46:03;;;;;;;46.73;10.87;;;3.50;99.50;;;;;;5069274;28;20532;-59
2023/03/15 00:48:31;;;;;;;22.17;6.57;;;3.50;99.40;;;;;;5044553;28;20494;-59
2023/03/15 00:51:05;;;;;;;32.30;8.03;;;3.50;99.40;;;;;;5068411;28;20894;-59
2023/03/15 00:53:32;;;;;;;19.73;6.60;;;3.50;99.50;;;;;;5046614;28;20481;-59
2023/03/15 00:56:00;;;;;;;29.10;7.77;;;;;;;;;;5055024;28;20478;-59
2023/03/15 00:58:27;;;;;;;27.80;7.83;;;;;;;;;;5067879;28;20494;-59
2023/03/15 01:00:54;;;;;;;36.40;10.33;;;;;;;;;;5068529;28;20534;-59
2023/03/15 01:03:21;;;;;;;39.23;9.83;;;3.30;99.60;;;;;;5070789;28;20850;-60
2023/03/15 01:05:49;;;;;;;32.73;7.70;;;3.20;99.60;;;;;;5056273;28;20966;-59
2023/03/15 01:08:16;;;;;;;53.97;11.23;;;;;;;;;;5047581;28;21048;-59
2023/03/15 01:10:43;;;;;;;37.83;9.40;;;;;;;;;;5044184;28;20832;-59
2023/03/15 01:13:10;;;;;;;80.37;15.63;;;;;;;;;;5065378;28;20478;-59
2023/03/15 01:15:37;;;;;;;28.43;8.40;;;2.90;99.60;;;;;;5061175;28;20490;-59
2023/03/15 01:18:04;;;;;;;40.00;9.07;;;;;;;;;;5060412;28;20516;-59
2023/03/15 01:20:31;;;;;;;42.10;9.77;;;;;;;;;;5069437;28;20478;-59
2023/03/15 01:22:59;;;;;;;50.90;11.57;;;2.90;99.90;;;;;;5067696;28;20479;-59
2023/03/15 01:25:26;;;;;;;37.60;9.73;;;;;;;;;;5068552;28;20683;-59
2023/03/15 01:27:53;;;;;;;29.07;8.30;;;;;;;;;;5072329;28;20482;-59
2023/03/15 01:30:20;;;;;;;33.77;8.60;;;;;;;;;;5065120;28;20479;-59
2023/03/15 01:32:47;;;;;;;43.87;11.40;;;;;;;;;;5047425;28;20464;-59
2023/03/15 01:35:14;;;;;;;56.00;13.73;;;;;;;;;;5087335;28;20893;-59
2023/03/15 01:37:41;;;;;;;29.37;9.00;;;;;;;;;;5088139;28;20572;-59
2023/03/15 01:40:12;;;;;;;52.57;13.80;;;2.30;99.90;;;;;;5091290;28;20811;-59
2023/03/15 01:42:51;;;;;;;27.27;8.23;;;2.30;99.90;;;;;;5086176;28;20487;-59
2023/03/15 01:45:53;;;;;;;40.17;10.67;;;2.30;99.90;;;;;;5088272;28;20480;-59
2023/03/15 01:48:23;;;;;;;26.60;8.47;;;2.40;99.90;;;;;;5088228;28;20473;-59
2023/03/15 01:50:53;;;;;;;22.33;7.80;;;2.50;99.90;;;;;;5093948;28;20474;-59
2023/03/15 01:53:20;;;;;;;27.17;8.60;;;2.40;99.90;;;;;;5069959;28;20944;-59
2023/03/15 01:55:48;;;;;;;34.77;9.60;;;2.50;99.90;;;;;;5066606;28;20478;-59
2023/03/15 01:58:16;;;;;;;47.33;12.47;;;2.40;99.90;;;;;;5073764;28;21228;-59
2023/03/15 02:00:43;;;;;;;25.40;8.63;;;2.40;99.90;;;;;;5064941;28;20568;-59
2023/03/15 02:03:13;;;;;;;61.17;15.40;;;2.40;99.90;;;;;;5062178;28;20570;-59
2023/03/15 02:05:44;;;;;;;25.93;8.80;;;2.30;99.90;;;;;;5075673;28;20497;-59
2023/03/15 02:08:12;;;;;;;44.20;12.93;;;2.30;99.90;;;;;;5074322;28;20489;-59
2023/03/15 02:10:43;;;;;;;27.87;8.60;;;2.20;99.90;;;;;;5065478;28;20515;-59
2023/03/15 02:13:15;;;;;;;52.57;13.37;;;2.20;99.90;;;;;;5073199;28;20664;-59
2023/03/15 02:15:45;;;;;;;31.20;9.40;;;;;;;;;;5073883;28;20491;-59
2023/03/15 02:18:12;;;;;;;52.83;13.33;;;2.20;99.90;;;;;;5067789;27;20476;-59
2023/03/15 02:20:46;;;;;;;23.50;9.10;;;2.20;99.90;;;;;;5068014;28;20726;-59
2023/03/15 02:23:15;;;;;;;55.20;12.63;;;2.20;99.90;;;;;;5079600;28;20578;-59
2023/03/15 02:25:49;;;;;;;44.00;9.77;;;2.10;99.90;;;;;;5040423;28;20810;-59
2023/03/15 02:28:19;;;;;;;42.57;10.20;;;2.20;99.90;;;;;;5077876;28;20567;-59
2023/03/15 02:30:47;;;;;;;38.80;8.77;;;2.30;99.90;;;;;;5069040;28;20478;-59
2023/03/15 02:33:20;;;;;;;66.97;15.43;;;2.20;99.90;;;;;;5091886;28;21202;-59
2023/03/15 02:35:47;;;;;;;36.90;9.23;;;2.10;99.90;;;;;;5062165;28;20489;-59
2023/03/15 02:38:14;;;;;;;63.50;13.47;;;;;;;;;;5068906;28;20993;-59
2023/03/15 02:40:41;;;;;;;33.80;9.40;;;;;;;;;;5090688;28;20890;-59
2023/03/15 02:43:14;;;;;;;53.57;13.23;;;2.20;99.90;;;;;;5080818;28;20866;-59
2023/03/15 02:45:42;;;;;;;22.83;8.23;;;2.20;99.90;;;;;;5080331;28;20697;-59
2023/03/15 02:48:10;;;;;;;68.23;16.83;;;2.20;99.90;;;;;;5073169;28;20531;-59
2023/03/15 02:50:37;;;;;;;35.60;10.67;;;;;;;;;;5074035;28;20531;-59
2023/03/15 02:53:04;;;;;;;43.00;12.07;;;2.00;99.90;;;;;;5073904;28;20555;-59
2023/03/15 02:55:32;;;;;;;31.90;9.50;;;;;;;;;;5072464;28;20489;-59
2023/03/15 02:57:59;;;;;;;47.43;11.67;;;2.10;99.90;;;;;;5081925;28;20838;-59
2023/03/15 03:00:26;;;;;;;46.57;11.63;;;2.10;99.90;;;;;;5079461;28;20478;-59
2023/03/15 03:02:54;;;;;;;32.23;10.73;;;2.20;99.90;;;;;;5058416;28;20546;-59
2023/03/15 03:05:21;;;;;;;37.57;10.30;;;;;;;;;;5081317;28;20643;-59
2023/03/15 03:07:49;;;;;;;33.57;9.80;;;1.90;99.90;;;;;;5074250;28;20489;-59
2023/03/15 03:10:17;;;;;;;56.20;13.57;;;3.80;99.90;;;;;;5071131;28;20928;-59
2023/03/15 03:12:45;;;;;;;26.50;9.60;;;;;;;;;;5070061;28;20486;-59
2023/03/15 03:15:12;;;;;;;58.30;14.40;;;-0.90;99.90;;;;;;5070082;28;20886;-59
2023/03/15 03:17:39;;;;;;;32.90;10.93;;;;;;;;;;5059659;28;20479;-59
2023/03/15 03:20:12;;;;;;;57.93;14.73;;;2.10;99.90;;;;;;5078919;28;20701;-59
2023/03/15 03:22:39;;;;;;;34.73;12.03;;;;;;;;;;5065169;28;20832;-59
2023/03/15 03:25:08;;;;;;;61.30;16.37;;;2.20;99.90;;;;;;5071297;28;20490;-59
2023/03/15 03:27:35;;;;;;;42.57;12.30;;;2.20;99.90;;;;;;5073407;28;21026;-59
2023/03/15 03:30:02;;;;;;;53.77;15.37;;;2.20;99.90;;;;;;5063018;28;20815;-59
2023/03/15 03:32:30;;;;;;;47.47;12.50;;;;;;;;;;5061002;28;20559;-59
2023/03/15 03:34:57;;;;;;;40.30;10.33;;;;;;;;;;5061898;28;20535;-59
2023/03/15 03:37:25;;;;;;;41.93;10.70;;;2.30;99.90;;;;;;5071301;28;20744;-59
2023/03/15 03:39:52;;;;;;;47.20;11.67;;;2.40;99.90;;;;;;5092011;28;21034;-60
2023/03/15 03:42:19;;;;;;;41.93;11.43;;;;;;;;;;5081718;28;20486;-59
2023/03/15 03:44:46;;;;;;;33.63;11.20;;;;;;;;;;5067594;28;20486;-59
2023/03/15 03:47:13;;;;;;;63.83;14.93;;;;;;;;;;5070809;28;20490;-59
2023/03/15 03:49:40;;;;;;;29.50;10.73;;;;;;;;;;5067550;28;21062;-59
2023/03/15 03:52:07;;;;;;;75.77;20.03;;;1.90;99.90;;;;;;5058365;28;20580;-59
2023/03/15 03:54:35;;;;;;;39.60;11.20;;;1.90;99.90;;;;;;5074804;28;20485;-59
2023/03/15 03:57:01;;;;;;;20.10;9.10;;;1.80;99.90;;;;;;5079928;28;20535;-59
2023/03/15 03:59:28;;;;;;;27.83;11.63;;;1.70;99.90;;;;;;5072981;28;20489;-59
2023/03/15 04:01:55;;;;;;;27.50;11.73;;;1.70;99.90;;;;;;5062846;28;20474;-59
2023/03/15 04:04:21;;;;;;;26.50;10.57;;;1.60;99.90;;;;;;5090394;28;20485;-59
2023/03/15 04:06:49;;;;;;;19.63;9.40;;;1.60;99.90;;;;;;5079689;28;20493;-59
2023/03/15 04:09:17;;;;;;;40.93;14.20;;;1.50;99.90;;;;;;5086150;28;20497;-59
2023/03/15 04:11:45;;;;;;;24.10;9.57;;;1.50;99.90;;;;;;5069531;28;20681;-59
2023/03/15 04:14:13;;;;;;;42.67;14.43;;;1.40;99.90;;;;;;5045794;28;20500;-59
2023/03/15 04:16:40;;;;;;;25.20;9.67;;;1.30;99.90;;;;;;5065069;28;20481;-59
2023/03/15 04:19:07;;;;;;;25.40;9.97;;;1.20;99.90;;;;;;5058849;28;20555;-59
2023/03/15 04:21:34;;;;;;;30.03;13.37;;;1.10;99.90;;;;;;5057760;28;20593;-59
2023/03/15 04:24:01;;;;;;;29.27;12.53;;;1.10;99.90;;;;;;5080985;28;20566;-59
2023/03/15 04:26:29;;;;;;;23.90;10.40;;;1.10;99.90;;;;;;5085242;28;20559;-59
2023/03/15 04:28:58;;;;;;;27.73;12.63;;;1.00;99.90;;;;;;5072303;28;20531;-59
2023/03/15 04:31:26;;;;;;;39.57;15.60;;;1.10;99.90;;;;;;5088470;28;20481;-59
2023/03/15 04:33:53;;;;;;;26.37;8.90;;;1.20;99.90;;;;;;5076449;28;20484;-59
2023/03/15 04:36:20;;;;;;;24.47;10.70;;;1.20;99.90;;;;;;5082686;28;20462;-59
2023/03/15 04:38:47;;;;;;;27.37;11.03;;;1.20;99.90;;;;;;5085866;28;20718;-59
2023/03/15 04:41:15;;;;;;;30.93;11.23;;;1.20;99.90;;;;;;5078551;28;20827;-59
2023/03/15 04:43:42;;;;;;;26.03;10.23;;;1.20;99.90;;;;;;5076917;28;20478;-59
2023/03/15 04:46:10;;;;;;;25.23;9.93;;;1.20;99.90;;;;;;5072619;28;20535;-59
2023/03/15 04:48:37;;;;;;;26.73;8.53;;;1.20;99.90;;;;;;5051690;28;20485;-59
2023/03/15 04:51:04;;;;;;;41.53;13.80;;;1.20;99.90;;;;;;5068396;28;20884;-58
2023/03/15 04:53:31;;;;;;;31.63;9.70;;;1.30;99.90;;;;;;5056950;28;20492;-59
2023/03/15 04:55:58;;;;;;;27.87;9.57;;;1.30;99.90;;;;;;5071773;28;20837;-59
2023/03/15 04:58:25;;;;;;;27.83;10.80;;;1.40;99.90;;;;;;5078757;28;20482;-59
2023/03/15 05:00:53;;;;;;;37.00;10.73;;;1.50;99.90;;;;;;5086571;28;20493;-59
2023/03/15 05:03:21;;;;;;;28.73;9.03;;;1.50;99.90;;;;;;5071599;28;20512;-59
2023/03/15 05:05:48;;;;;;;27.03;8.70;;;1.50;99.90;;;;;;5075006;28;20848;-59
2023/03/15 05:08:15;;;;;;;42.93;13.23;;;1.60;99.90;;;;;;5069013;28;20506;-59
2023/03/15 05:10:41;;;;;;;21.80;8.10;;;1.60;99.90;;;;;;5097385;28;21014;-59
2023/03/15 05:13:08;;;;;;;45.97;15.43;;;1.50;99.90;;;;;;5074636;28;20925;-58
2023/03/15 05:15:35;;;;;;;25.00;10.77;;;1.50;99.90;;;;;;5087181;28;20494;-59
2023/03/15 05:18:02;;;;;;;36.97;12.50;;;1.50;99.90;;;;;;5059707;28;20530;-59
2023/03/15 05:20:30;;;;;;;41.47;17.97;;;1.50;99.90;;;;;;5089310;28;20478;-59
2023/03/15 05:22:57;;;;;;;36.00;13.63;;;1.50;99.90;;;;;;5079122;28;20777;-59
2023/03/15 05:25:24;;;;;;;35.33;13.60;;;1.50;99.90;;;;;;5072035;28;20488;-59
2023/03/15 05:27:51;;;;;;;39.70;15.30;;;1.50;99.90;;;;;;5067424;28;20470;-59
2023/03/15 05:30:18;;;;;;;43.13;16.07;;;1.50;99.90;;;;;;5063386;28;20486;-59
2023/03/15 05:32:45;;;;;;;47.37;18.17;;;1.50;99.90;;;;;;5071032;28;20474;-59
2023/03/15 05:35:12;;;;;;;60.27;20.43;;;1.40;99.90;;;;;;5046082;28;20479;-59
2023/03/15 05:37:41;;;;;;;40.67;17.00;;;;;;;;;;5063792;28;21134;-59
2023/03/15 05:40:10;;;;;;;59.37;24.57;;;1.40;99.90;;;;;;5069388;28;20567;-59
2023/03/15 05:42:37;;;;;;;53.97;21.77;;;1.40;99.90;;;;;;5083026;28;20477;-59
2023/03/15 05:45:04;;;;;;;49.77;21.73;;;1.40;99.90;;;;;;5059883;28;20539;-59
2023/03/15 05:47:31;;;;;;;45.97;20.43;;;1.50;99.90;;;;;;5036716;28;20479;-59
2023/03/15 05:49:58;;;;;;;40.47;19.10;;;1.50;99.90;;;;;;5075729;28;20735;-59
2023/03/15 05:52:25;;;;;;;36.67;17.07;;;1.60;99.90;;;;;;5076730;28;20536;-59
2023/03/15 05:54:53;;;;;;;51.03;20.47;;;1.60;99.90;;;;;;5053383;28;20493;-59
2023/03/15 05:57:19;;;;;;;33.53;14.87;;;1.70;99.90;;;;;;5062515;28;20477;-59
2023/03/15 05:59:46;;;;;;;25.87;13.20;;;1.90;99.90;;;;;;5077758;28;20880;-59
2023/03/15 06:02:13;;;;;;;59.37;20.43;;;1.90;99.90;;;;;;5070690;28;20884;-59
2023/03/15 06:04:40;;;;;;;51.67;19.27;;;1.90;99.90;;;;;;5059715;28;20483;-59
2023/03/15 06:07:06;;;;;;;71.57;22.63;;;1.90;99.90;;;;;;5064937;28;20577;-59
2023/03/15 06:09:33;;;;;;;28.73;12.43;;;1.90;99.90;;;;;;5079126;28;20563;-59
2023/03/15 06:12:06;;;;;;;61.37;23.13;;;1.90;99.90;;;;;;5080436;28;20482;-59
2023/03/15 06:14:32;;;;;;;68.53;22.30;;;1.90;99.90;;;;;;5069011;28;20985;-59
2023/03/15 06:16:59;;;;;;;39.27;15.57;;;1.90;99.90;;;;;;5063050;28;20475;-59
2023/03/15 06:19:26;;;;;;;39.13;16.77;;;1.90;99.90;;;;;;5068515;28;20528;-59
2023/03/15 06:21:52;;;;;;;40.33;19.40;;;1.80;99.90;;;;;;5073300;28;20478;-59
2023/03/15 06:24:19;;;;;;;58.83;20.50;;;1.90;99.90;;;;;;5085293;28;20477;-59
2023/03/15 06:26:46;;;;;;;31.00;14.30;;;2.00;99.90;;;;;;5074014;28;20903;-59
2023/03/15 06:29:15;;;;;;;56.57;19.13;;;2.00;99.90;;;;;;5077527;28;20499;-59
2023/03/15 06:31:42;;;;;;;37.07;14.07;;;2.00;99.90;;;;;;5088235;28;20560;-59
2023/03/15 06:34:08;;;;;;;63.93;19.50;;;2.10;99.90;;;;;;5069127;28;20491;-59
2023/03/15 06:36:36;;;;;;;49.53;14.67;;;2.10;99.90;;;;;;5059330;28;21275;-60
2023/03/15 06:39:04;;;;;;;37.00;12.07;;;2.10;99.90;;;;;;5066589;28;20488;-59
2023/03/15 06:41:31;;;;;;;29.67;11.97;;;2.10;99.90;;;;;;5078528;28;20493;-59
2023/03/15 06:43:58;;;;;;;26.33;10.90;;;2.20;99.90;;;;;;5067310;28;20518;-59
2023/03/15 06:46:26;;;;;;;28.57;10.50;;;2.20;99.90;;;;;;5067736;28;20559;-59
2023/03/15 06:48:53;;;;;;;30.13;12.20;;;2.20;99.90;;;;;;5064351;28;20487;-59
2023/03/15 06:51:19;;;;;;;36.00;12.67;;;2.30;99.90;;;;;;5074903;28;20478;-60
2023/03/15 06:53:46;;;;;;;27.23;9.80;;;2.30;99.90;;;;;;5072536;28;20564;-59
2023/03/15 06:56:13;;;;;;;47.57;15.23;;;2.40;99.90;;;;;;5071027;28;20894;-59
2023/03/15 06:58:39;;;;;;;22.37;9.97;;;2.50;99.90;;;;;;5075202;28;20483;-59
2023/03/15 07:01:06;;;;;;;53.53;17.17;;;2.50;99.90;;;;;;5060945;28;20475;-59
2023/03/15 07:03:34;;;;;;;31.60;11.60;;;2.50;99.90;;;;;;5075322;28;20810;-59
2023/03/15 07:06:01;;;;;;;36.67;13.10;;;2.60;99.90;;;;;;5070681;28;20911;-59
2023/03/15 07:08:27;;;;;;;33.63;13.13;;;2.70;99.90;;;;;;5086440;28;21052;-59
2023/03/15 07:10:54;;;;;;;28.63;11.20;;;2.90;99.90;;;;;;5069888;28;20515;-58
2023/03/15 07:13:21;;;;;;;44.80;11.73;;;3.20;99.90;;;;;;5070792;28;20486;-59
2023/03/15 07:15:52;;;;;;;40.33;12.07;;;3.50;99.90;;;;;;5061702;28;20481;-59
2023/03/15 07:18:18;;;;;;;40.53;14.43;;;3.50;99.90;;;;;;5080475;28;20529;-59
2023/03/15 07:20:46;;;;;;;30.37;8.50;;;3.50;99.90;;;;;;5086090;28;20567;-59
2023/03/15 07:23:13;;;;;;;58.33;18.10;;;3.50;99.90;;;;;;5087200;28;20539;-59
2023/03/15 07:25:40;;;;;;;35.13;11.90;;;3.50;99.90;;;;;;5059641;28;20478;-59
2023/03/15 07:28:06;;;;;;;45.63;14.63;;;3.50;99.90;;;;;;5071534;28;20544;-59
2023/03/15 07:30:33;;;;;;;29.37;9.63;;;3.40;99.90;;;;;;5061932;28;20482;-59
2023/03/15 07:33:00;;;;;;;44.10;14.57;;;3.50;99.90;;;;;;5038094;28;20771;-59
2023/03/15 07:35:26;;;;;;;42.00;10.60;;;3.50;99.90;;;;;;5051335;28;20483;-60
2023/03/15 07:37:54;;;;;;;31.23;11.37;;;3.70;99.90;;;;;;5053998;28;20494;-59
2023/03/15 07:40:21;;;;;;;38.03;12.40;;;3.90;99.90;;;;;;5050916;28;20933;-59
2023/03/15 07:42:47;;;;;;;43.00;10.17;;;3.90;99.90;;;;;;5054884;28;21297;-59
2023/03/15 07:45:14;;;;;;;44.33;11.77;;;3.90;99.90;;;;;;5070105;28;20478;-59
2023/03/15 07:47:41;;;;;;;27.60;10.47;;;3.90;99.90;;;;;;5050010;28;20482;-59
2023/03/15 07:50:11;;;;;;;40.47;12.50;;;3.80;99.90;;;;;;5081371;28;20477;-60
2023/03/15 07:52:37;;;;;;;32.83;11.03;;;3.80;99.90;;;;;;5037107;28;20483;-59
2023/03/15 07:55:07;;;;;;;35.93;9.77;;;3.70;99.90;;;;;;5080041;28;20774;-59
2023/03/15 07:57:34;;;;;;;24.13;7.73;;;3.80;99.90;;;;;;5072469;28;20521;-59
2023/03/15 08:00:01;;;;;;;30.17;10.10;;;3.70;99.90;;;;;;5085549;28;20997;-60
2023/03/15 08:02:28;;;;;;;21.47;8.37;;;3.70;99.90;;;;;;5069552;28;20482;-59
2023/03/15 08:04:54;;;;;;;28.53;8.23;;;3.70;99.90;;;;;;5086923;28;20515;-59
2023/03/15 08:07:21;;;;;;;22.27;9.03;;;3.70;99.90;;;;;;5084516;28;20473;-59
2023/03/15 08:09:48;;;;;;;35.37;10.57;;;3.70;99.90;;;;;;5080495;28;20546;-60
2023/03/15 08:12:16;;;;;;;43.30;14.03;;;3.80;99.90;;;;;;5080332;28;20487;-59
2023/03/15 08:14:42;;;;;;;21.63;9.17;;;3.80;99.90;;;;;;5032191;28;20482;-59
2023/03/15 08:17:12;;;;;;;39.50;12.03;;;3.80;99.90;;;;;;5068051;28;20482;-59
2023/03/15 08:19:39;;;;;;;20.83;7.67;;;3.80;99.90;;;;;;5084844;28;20680;-59
2023/03/15 08:22:06;;;;;;;47.47;14.23;;;4.00;99.90;;;;;;5076800;28;20482;-59
2023/03/15 08:24:33;;;;;;;26.50;9.23;;;4.00;99.90;;;;;;5087268;28;21009;-59
2023/03/15 08:27:56;;;;;;;31.90;10.10;;;4.10;99.90;;;;;;5087854;28;20481;-60
2023/03/15 08:30:25;;;;;;;23.13;8.43;;;4.10;99.90;;;;;;5078305;28;20486;-60
2023/03/15 08:32:52;;;;;;;68.80;12.20;;;;;;;;;;5075287;28;20474;-59
2023/03/15 08:35:21;;;;;;;42.83;10.17;;;4.30;99.90;;;;;;5055340;28;20701;-59
2023/03/15 08:37:48;;;;;;;31.13;7.87;;;4.40;99.90;;;;;;5067028;28;20470;-60
2023/03/15 08:40:17;;;;;;;52.00;13.80;;;4.50;99.90;;;;;;5075535;28;20551;-59
2023/03/15 08:42:45;;;;;;;34.30;9.10;;;4.60;99.90;;;;;;5049641;28;21026;-59
2023/03/15 08:45:12;;;;;;;39.67;11.03;;;4.60;99.90;;;;;;5075126;28;20527;-60
2023/03/15 08:47:40;;;;;;;27.43;10.17;;;4.60;99.90;;;;;;5064276;28;20830;-59
2023/03/15 08:50:11;;;;;;;55.23;15.77;;;4.40;99.90;;;;;;5086320;28;20488;-59
2023/03/15 08:52:38;;;;;;;18.60;6.50;;;4.40;99.90;;;;;;5081897;28;21290;-59
2023/03/15 08:55:05;;;;;;;45.23;11.97;;;;;;;;;;5056176;28;20479;-59
2023/03/15 08:57:33;;;;;;;25.80;7.87;;;4.20;99.90;;;;;;5085642;28;20485;-59
2023/03/15 09:00:00;;;;;;;42.93;11.60;;;4.30;99.90;;;;;;5087064;28;20477;-59
2023/03/15 09:02:27;;;;;;;34.13;8.43;;;4.20;99.90;;;;;;5070469;28;20485;-59
2023/03/15 09:04:55;;;;;;;23.47;7.93;;;4.10;99.90;;;;;;5076521;28;20479;-59
2023/03/15 09:07:21;;;;;;;35.93;11.70;;;4.30;99.90;;;;;;5085181;28;20545;-59
2023/03/15 09:09:48;;;;;;;44.33;13.77;;;3.90;99.90;;;;;;5086375;28;20881;-59
2023/03/15 09:12:15;;;;;;;58.40;15.50;;;3.80;99.90;;;;;;5083148;28;20478;-59
2023/03/15 09:14:42;;;;;;;23.00;8.97;;;3.80;99.90;;;;;;5069587;28;20486;-59
2023/03/15 09:17:09;;;;;;;58.27;15.00;;;3.80;99.90;;;;;;5057230;28;20507;-59
2023/03/15 09:19:36;;;;;;;27.30;9.03;;;3.70;99.90;;;;;;5062595;28;20607;-58
2023/03/15 09:22:04;;;;;;;33.70;12.07;;;3.70;99.90;;;;;;5088395;28;20471;-58
2023/03/15 09:24:31;;;;;;;31.67;10.80;;;3.60;99.90;;;;;;5055639;28;20482;-58
2023/03/15 09:26:58;;;;;;;31.10;10.53;;;3.50;99.90;;;;;;5089577;28;20970;-59
2023/03/15 09:29:24;;;;;;;43.33;13.70;;;3.50;99.90;;;;;;5078674;28;21017;-59
2023/03/15 09:31:51;;;;;;;33.33;10.10;;;3.60;99.90;;;;;;5086241;28;20474;-59
2023/03/15 09:34:18;;;;;;;35.17;11.57;;;3.70;99.90;;;;;;5055971;28;20478;-59
2023/03/15 09:36:44;;;;;;;19.77;8.30;;;3.70;99.90;;;;;;5058713;28;20516;-59
2023/03/15 09:39:12;;;;;;;58.67;17.17;;;3.80;99.90;;;;;;5079454;28;20515;-60
2023/03/15 09:41:42;;;;;;;32.17;11.50;;;3.90;99.90;;;;;;5044313;28;20846;-59
2023/03/15 09:44:39;;;;;;;59.07;16.70;;;4.10;99.90;;;;;;5047007;28;21145;-59
2023/03/15 09:47:28;;;;;;;49.13;12.77;;;4.20;99.90;;;;;;5058247;28;20471;-59
2023/03/15 09:49:58;;;;;;;23.70;7.63;;;4.40;99.90;;;;;;5054120;28;20487;-59
2023/03/15 09:52:32;;;;;;;28.13;9.47;;;4.40;99.90;;;;;;5041867;28;20483;-59
2023/03/15 09:55:04;;;;;;;33.47;9.67;;;4.60;99.90;;;;;;5043390;28;20545;-59
2023/03/15 09:57:38;;;;;;;23.90;10.60;;;4.80;99.90;;;;;;5084480;27;20477;-59
2023/03/15 10:00:11;;;;;;;28.93;9.73;;;5.00;99.90;;;;;;5069482;27;21170;-59
2023/03/15 10:02:45;;;;;;;22.07;10.13;;;5.20;99.90;;;;;;5075049;28;20485;-59
2023/03/15 10:05:17;;;;;;;28.67;11.70;;;5.50;99.90;;;;;;5088550;28;20546;-59
2023/03/15 10:07:44;;;;;;;16.00;5.47;;;5.70;99.90;;;;;;5060879;28;20988;-59
2023/03/15 10:10:21;;;;;;;24.07;10.97;;;6.00;99.90;;;;;;5083516;28;21027;-59
2023/03/15 10:12:55;;;;;;;18.03;8.13;;;6.30;99.90;;;;;;5062021;28;20465;-59
2023/03/15 10:15:32;;;;;;;17.40;9.13;;;6.50;99.90;;;;;;5076332;28;20481;-59
2023/03/15 10:18:16;;;;;;;17.20;9.10;;;6.50;99.90;;;;;;5059909;28;20476;-60
2023/03/15 10:20:49;;;;;;;13.33;7.63;;;6.60;99.90;;;;;;5073328;28;20902;-59
2023/03/15 10:23:19;;;;;;;26.40;11.90;;;6.80;99.90;;;;;;5062846;28;20472;-59
2023/03/15 10:25:50;;;;;;;12.80;7.70;;;7.10;99.90;;;;;;5060005;28;20532;-59
2023/03/15 10:28:24;;;;;;;20.43;10.80;;;7.10;99.90;;;;;;5061910;27;20513;-59
2023/03/15 10:30:51;;;;;;;21.23;8.37;;;7.20;99.90;;;;;;5074176;28;20477;-59
2023/03/15 10:33:26;;;;;;;20.30;11.27;;;7.50;99.90;;;;;;5063670;28;20830;-59
2023/03/15 10:35:53;;;;;;;12.90;7.23;;;;;;;;;;5086971;28;20710;-59
2023/03/15 10:38:22;;;;;;;15.43;8.73;;;7.70;99.90;;;;;;5077007;28;20490;-58
2023/03/15 10:40:53;;;;;;;17.93;10.07;;;7.90;99.90;;;;;;5093456;28;20489;-60
2023/03/15 10:43:21;;;;;;;16.90;9.43;;;8.00;99.90;;;;;;5054789;28;20482;-59
2023/03/15 10:45:59;;;;;;;13.17;7.50;;;8.20;99.90;;;;;;5070732;28;20493;-59
2023/03/15 10:48:25;;;;;;;18.93;8.77;;;7.90;99.60;;;;;;5081170;28;20591;-59
2023/03/15 10:50:54;;;;;;;17.83;7.57;;;7.80;99.90;;;;;;5070241;28;21145;-59
2023/03/15 10:53:21;;;;;;;15.10;9.50;;;7.50;99.90;;;;;;5069052;28;20563;-59
2023/03/15 10:55:49;;;;;;;12.57;6.10;;;7.30;99.90;;;;;;5087048;28;20481;-59
2023/03/15 10:58:26;;;;;;;18.57;10.03;;;7.10;99.90;;;;;;5076865;28;20505;-59
2023/03/15 11:00:58;;;;;;;14.13;8.60;;;7.10;99.90;;;;;;5079518;28;20481;-59
2023/03/15 11:03:25;;;;;;;24.10;8.80;;;7.00;99.90;;;;;;5065921;28;20558;-59
2023/03/15 11:05:53;;;;;;;15.37;9.70;;;7.10;99.90;;;;;;5085743;28;20478;-59
2023/03/15 11:08:22;;;;;;;16.80;11.23;;;7.20;99.90;;;;;;5056992;28;20486;-58
2023/03/15 11:10:57;;;;;;;17.20;8.33;;;7.30;99.90;;;;;;5071946;28;20844;-60
2023/03/15 11:13:26;;;;;;;12.40;8.60;;;7.20;99.90;;;;;;5060650;28;20481;-59
2023/03/15 11:16:00;;;;;;;15.90;8.70;;;7.30;99.90;;;;;;5074422;28;20531;-59
2023/03/15 11:18:29;;;;;;;16.67;8.70;;;7.30;99.90;;;;;;5060253;28;21016;-60
2023/03/15 11:20:57;;;;;;;13.50;8.20;;;7.30;99.90;;;;;;5063801;28;20920;-60
2023/03/15 11:23:26;;;;;;;20.13;9.60;;;7.30;99.90;;;;;;5060245;28;20692;-60
2023/03/15 11:25:54;;;;;;;11.77;7.23;;;7.30;99.90;;;;;;5078181;28;20486;-59
2023/03/15 11:28:24;;;;;;;15.50;9.40;;;;;;;;;;5067470;28;20740;-60
2023/03/15 11:30:50;;;;;;;17.97;8.60;;;7.30;99.90;;;;;;5049835;28;20810;-59
2023/03/15 11:33:36;;;;;;;18.70;11.33;;;7.30;99.90;;;;;;5065803;28;20898;-59
2023/03/15 11:36:07;;;;;;;22.47;10.63;;;7.40;99.90;;;;;;5056958;28;20482;-60
2023/03/15 11:38:38;;;;;;;13.63;9.10;;;7.50;99.90;;;;;;5068343;28;20542;-60
2023/03/15 11:41:20;;;;;;;18.13;7.83;;;7.60;99.90;;;;;;5060068;28;21020;-59
2023/03/15 11:43:56;;;;;;;12.00;8.07;;;7.90;99.90;;;;;;5048266;28;20914;-59
2023/03/15 11:46:29;;;;;;;9.60;6.67;;;8.20;99.90;;;;;;5061072;28;20662;-59
2023/03/15 11:49:02;;;;;;;11.23;7.17;;;8.20;99.90;;;;;;5058719;28;20532;-59
2023/03/15 11:51:33;;;;;;;18.33;9.33;;;8.30;99.90;;;;;;5080645;28;20477;-59
2023/03/15 11:54:07;;;;;;;14.03;9.43;;;8.30;99.90;;;;;;5064494;28;20747;-60
2023/03/15 11:56:52;;;;;;;10.43;7.73;;;8.10;99.90;;;;;;5056391;27;20480;-59
2023/03/15 11:59:25;;;;;;;10.70;7.97;;;8.10;99.90;;;;;;5058516;27;20486;-59
2023/03/15 12:01:55;;;;;;;11.73;7.27;;;8.00;99.90;;;;;;5067589;28;20482;-59
2023/03/15 12:04:44;;;;;;;14.97;6.80;;;8.00;99.90;;;;;;5054929;28;20482;-60
2023/03/15 12:07:45;;;;;;;16.73;11.00;;;7.90;98.90;;;;;;5068811;28;20474;-60
2023/03/15 12:10:31;;;;;;;19.33;12.20;;;7.90;99.70;;;;;;5063938;28;20470;-59
2023/03/15 12:12:59;;;;;;;20.03;9.43;;;7.80;99.70;;;;;;5060901;28;21058;-59
2023/03/15 12:15:45;;;;;;;15.53;7.73;;;7.90;99.90;;;;;;5054754;28;20494;-60
2023/03/15 12:18:42;;;;;;;23.17;12.17;;;8.00;99.90;;;;;;5059007;28;20543;-59
2023/03/15 12:21:15;;;;;;;20.17;10.37;;;8.30;99.90;;;;;;5047830;27;20470;-59
2023/03/15 12:23:47;;;;;;;12.90;7.77;;;8.40;99.90;;;;;;5058108;28;20559;-59
2023/03/15 12:26:24;;;;;;;15.40;10.60;;;8.70;99.90;;;;;;5054228;28;20846;-59
2023/03/15 12:29:01;;;;;;;14.23;9.13;;;8.80;99.70;;;;;;5061455;28;20470;-59
2023/03/15 12:31:43;;;;;;;12.33;9.43;;;9.00;99.20;;;;;;5069817;28;20530;-59
2023/03/15 12:34:15;;;;;;;23.93;13.53;;;9.00;99.20;;;;;;5051746;28;21164;-59
2023/03/15 12:36:47;;;;;;;14.43;5.97;;;9.00;98.30;;;;;;5060771;28;20493;-59
2023/03/15 12:39:22;;;;;;;18.73;11.70;;;9.20;98.60;;;;;;5082730;28;20477;-59
2023/03/15 12:41:50;;;;;;;7.83;5.80;;;9.00;97.60;;;;;;5088765;28;20531;-59
2023/03/15 12:44:26;;;;;;;13.63;6.37;;;9.00;97.20;;;;;;5070133;28;20575;-59
2023/03/15 12:46:59;;;;;;;11.63;8.20;;;9.10;97.30;;;;;;5061118;28;20577;-59
2023/03/15 12:49:32;;;;;;;17.03;7.40;;;9.10;96.90;;;;;;5081116;28;20484;-59
2023/03/15 12:52:01;;;;;;;8.50;6.73;;;9.10;97.10;;;;;;5059876;28;20477;-59
2023/03/15 12:54:37;;;;;;;12.03;7.93;;;8.90;96.50;;;;;;5051254;28;20470;-59
2023/03/15 12:57:05;;;;;;;14.23;9.77;;;8.90;96.60;;;;;;5063888;28;20478;-59
2023/03/15 12:59:46;;;;;;;10.43;7.33;;;9.00;96.70;;;;;;5068795;28;20481;-59
2023/03/15 13:02:33;;;;;;;12.60;9.10;;;9.20;97.00;;;;;;5065645;28;20631;-60
2023/03/15 13:05:13;;;;;;;12.70;8.30;;;9.40;96.50;;;;;;5056564;28;20636;-59